createdAt,value
2023-04-23T00:08:21.204Z,5.60
2023-04-23T00:23:11.793Z,6.73
2023-04-23T00:38:02.973Z,8.78
2023-04-23T00:52:56.309Z,9.36
2023-04-23T01:07:49.345Z,8.98
2023-04-23T01:22:40.767Z,8.18
2023-04-23T01:37:32.566Z,8.90
2023-04-23T01:52:25.301Z,7.30
2023-04-23T02:07:17.528Z,6.68
2023-04-23T02:22:09.820Z,6.04
2023-04-23T02:37:02.368Z,5.36
2023-04-23T02:51:54.903Z,4.87
2023-04-23T03:09:20.187Z,5.66
2023-04-23T03:11:46.856Z,6.04
2023-04-23T03:40:56.652Z,6.06
2023-04-23T04:10:41.460Z,5.41
2023-04-23T04:25:32.637Z,4.40
2023-04-23T04:40:24.204Z,5.49
2023-04-23T04:55:16.317Z,7.61
2023-04-23T05:25:16.849Z,7.26
2023-04-23T07:39:56.919Z,1.62
2023-04-23T07:54:50.301Z,1.44
2023-04-23T09:09:16.691Z,1.66
2023-04-23T09:24:11.885Z,1.76
2023-04-23T09:39:03.745Z,1.80
2023-04-23T09:53:56.727Z,1.88
2023-04-23T10:08:49.656Z,1.64
2023-04-23T10:23:42.576Z,1.60
2023-04-23T10:38:35.233Z,1.52
2023-04-23T10:53:27.101Z,1.40
2023-04-23T11:08:20.251Z,1.50
2023-04-23T11:23:11.486Z,1.24
2023-04-23T11:38:03.849Z,1.40
2023-04-23T11:52:57.361Z,1.34
2023-04-23T12:07:49.335Z,1.12
2023-04-23T12:22:40.199Z,1.01
2023-04-23T12:37:32.771Z,1.00
2023-04-23T12:52:25.279Z,1.00
2023-04-23T13:07:17.898Z,0.91
2023-04-23T13:22:11.887Z,0.80
2023-04-23T13:37:05.998Z,0.85
2023-04-23T13:51:59.466Z,0.82
2023-04-23T14:06:50.706Z,0.80
2023-04-23T14:21:42.816Z,1.07
2023-04-23T14:36:34.561Z,0.80
2023-04-23T14:51:27.901Z,0.80
2023-04-23T15:36:03.133Z,1.29
2023-04-23T15:50:48.588Z,0.90
2023-04-23T16:05:35.418Z,1.00
2023-04-23T16:50:10.407Z,1.61
2023-04-23T17:51:05.009Z,1.23
2023-04-23T18:06:04.560Z,1.20
2023-04-23T18:20:56.401Z,1.50
2023-04-23T18:35:49.024Z,2.01
2023-04-23T18:50:42.879Z,1.44
2023-04-23T19:05:34.338Z,1.41
2023-04-23T19:20:24.230Z,1.12
2023-04-23T19:35:15.079Z,1.10
2023-04-23T19:50:07.400Z,1.51
2023-04-23T20:04:59.128Z,1.20
2023-04-23T20:19:49.806Z,1.79
2023-04-23T20:34:40.349Z,1.00
2023-04-23T20:49:31.626Z,1.00
2023-04-23T21:04:24.165Z,0.80
2023-04-23T21:34:22.901Z,0.60
2023-04-23T21:49:13.057Z,0.77
2023-04-23T22:04:13.852Z,0.70
2023-04-23T22:19:04.421Z,0.70
2023-04-23T22:33:56.516Z,0.82
2023-04-23T22:48:49.943Z,1.03
2023-04-23T23:03:39.811Z,1.02
2023-04-23T23:18:31.666Z,0.99
2023-04-23T23:33:23.768Z,0.86
2023-04-23T23:48:14.330Z,1.43
